Time;durP1;ratioP1;P1;durP2;ratioP2;P2;SDS_P1;SDS_P2;PMS_P1;PMS_P2;Temp;Humidity;BMP_temperature;BMP_pressure;BME280_temperature;BME280_humidity;BME280_pressure;Samples;Min_cycle;Max_cycle;Signal;HPM_P1;HPM_P2
2023/12/23 00:00:17;;;;;;;;;2.67;2.67;;;;;;;;5062189;28;28266;-77
2023/12/23 00:02:43;;;;;;;;;2.00;2.00;;;;;;;;5035855;28;28761;-77
2023/12/23 00:05:08;;;;;;;;;2.00;2.00;;;;;;;;5033375;28;28483;-77
2023/12/23 00:07:34;;;;;;;;;3.33;2.00;;;;;;;;5063883;28;28363;-77
2023/12/23 00:09:59;;;;;;;;;3.00;1.67;;;;;;;;5062837;28;28606;-80
2023/12/23 00:12:24;;;;;;;;;3.33;1.00;;;;;;;;5043984;28;29779;-79
2023/12/23 00:14:49;;;;;;;;;2.00;0.67;;;;;;;;5052495;28;28691;-77
2023/12/23 00:17:15;;;;;;;;;4.00;1.00;;;;;;;;5052976;28;28938;-77
2023/12/23 00:19:40;;;;;;;;;3.00;1.00;;;;;;;;5063422;28;28513;-78
2023/12/23 00:22:05;;;;;;;;;1.67;1.67;;;;;;;;5050002;28;28603;-78
2023/12/23 00:24:31;;;;;;;;;1.00;0.33;;;;;;;;5055383;28;28648;-80
2023/12/23 00:26:57;;;;;;;;;4.33;1.67;;;;;;;;5057494;28;28603;-80
2023/12/23 00:29:23;;;;;;;;;2.00;1.00;;;;;;;;5060673;28;29096;-79
2023/12/23 00:31:49;;;;;;;;;2.00;2.00;;;;;;;;5068825;28;28605;-80
2023/12/23 00:34:14;;;;;;;;;2.67;1.67;;;;;;;;5040425;28;28697;-79
2023/12/23 00:36:39;;;;;;;;;1.00;1.00;;;;;;;;5052637;28;28565;-77
2023/12/23 00:39:04;;;;;;;;;2.00;2.00;;;;;;;;5053026;28;28866;-77
2023/12/23 00:41:30;;;;;;;;;0.00;0.00;;;;;;;;5051850;28;28816;-79
2023/12/23 00:43:55;;;;;;;;;2.00;1.00;;;;;;;;5053018;28;29679;-79
2023/12/23 00:46:20;;;;;;;;;1.67;0.00;;;;;;;;5053260;28;29439;-78
2023/12/23 00:48:45;;;;;;;;;2.33;1.33;;;;;;;;5063301;28;28369;-77
2023/12/23 00:51:11;;;;;;;;;2.00;2.00;;;;;;;;5061876;28;28079;-79
2023/12/23 00:53:37;;;;;;;;;1.67;1.67;;;;;;;;5033036;28;28394;-83
2023/12/23 00:56:02;;;;;;;;;0.67;0.67;;;;;;;;5051105;28;29607;-79
2023/12/23 00:58:28;;;;;;;;;1.00;1.00;;;;;;;;5033724;28;29740;-78
2023/12/23 01:00:53;;;;;;;;;1.67;1.67;;;;;;;;5053249;28;28499;-78
2023/12/23 01:03:18;;;;;;;;;0.67;0.67;;;;;;;;5055590;28;28735;-79
2023/12/23 01:05:43;;;;;;;;;0.67;0.67;;;;;;;;5034018;28;29750;-81
2023/12/23 01:08:09;;;;;;;;;2.00;0.67;;;;;;;;5042104;28;30290;-82
2023/12/23 01:10:34;;;;;;;;;1.00;1.00;;;;;;;;5062355;28;27938;-82
2023/12/23 01:13:00;;;;;;;;;1.33;1.33;;;;;;;;5048381;28;28223;-83
2023/12/23 01:15:25;;;;;;;;;2.00;1.00;;;;;;;;5057977;28;30190;-84
2023/12/23 01:17:50;;;;;;;;;1.00;0.33;;;;;;;;5050123;28;30105;-83
2023/12/23 01:20:16;;;;;;;;;3.00;1.00;;;;;;;;5073051;28;28690;-81
2023/12/23 01:22:47;;;;;;;;;3.00;1.00;;;;;;;;5054441;28;28525;-78
2023/12/23 01:25:21;;;;;;;;;3.33;1.00;;;;;;;;5054738;28;28379;-77
2023/12/23 01:27:55;;;;;;;;;3.67;2.33;;;;;;;;5069576;28;29186;-79
2023/12/23 01:30:20;;;;;;;;;1.00;0.33;;;;;;;;5054946;28;28114;-84
2023/12/23 01:32:45;;;;;;;;;1.67;1.00;;;;;;;;5057637;28;28439;-83
2023/12/23 01:35:11;;;;;;;;;0.67;0.67;;;;;;;;5053927;28;28806;-81
2023/12/23 01:37:37;;;;;;;;;1.00;0.33;;;;;;;;5043194;28;28386;-82
2023/12/23 01:40:02;;;;;;;;;2.00;1.00;;;;;;;;5052903;28;29256;-82
2023/12/23 01:42:27;;;;;;;;;0.67;0.67;;;;;;;;5055232;28;27997;-77
2023/12/23 01:44:53;;;;;;;;;1.00;0.00;;;;;;;;5047721;28;29183;-78
2023/12/23 01:47:18;;;;;;;;;3.67;0.33;;;;;;;;5031107;28;30283;-82
2023/12/23 01:49:43;;;;;;;;;2.67;1.67;;;;;;;;5042900;28;28894;-82
2023/12/23 01:52:09;;;;;;;;;2.00;0.33;;;;;;;;5064016;28;28568;-84
2023/12/23 01:54:35;;;;;;;;;2.67;1.00;;;;;;;;5039515;28;28450;-83
2023/12/23 01:57:00;;;;;;;;;1.00;1.00;;;;;;;;5034531;28;28542;-83
2023/12/23 01:59:26;;;;;;;;;0.67;0.67;;;;;;;;5052438;28;28600;-82
2023/12/23 02:01:51;;;;;;;;;0.33;0.00;;;;;;;;5055863;28;28800;-82
2023/12/23 02:04:17;;;;;;;;;1.33;0.00;;;;;;;;5062075;28;28534;-82
2023/12/23 02:06:42;;;;;;;;;3.67;0.00;;;;;;;;5043120;28;29797;-81
2023/12/23 02:09:08;;;;;;;;;3.00;1.00;;;;;;;;5053022;28;28456;-82
2023/12/23 02:11:49;;;;;;;;;0.00;0.00;;;;;;;;5046981;28;28431;-78
2023/12/23 02:14:23;;;;;;;;;0.00;0.00;;;;;;;;5040022;28;30053;-79
2023/12/23 02:16:49;;;;;;;;;0.00;0.00;;;;;;;;5061663;28;28384;-77
2023/12/23 02:19:15;;;;;;;;;0.00;0.00;;;;;;;;5038391;28;28826;-77
2023/12/23 02:21:40;;;;;;;;;1.67;1.00;;;;;;;;5054358;28;29000;-77
2023/12/23 02:24:05;;;;;;;;;0.67;0.33;;;;;;;;5053935;28;28924;-79
2023/12/23 02:26:33;;;;;;;;;2.33;1.00;;;;;;;;5058720;28;28564;-77
2023/12/23 02:29:01;;;;;;;;;2.75;0.75;;;;;;;;5066036;28;27994;-82
2023/12/23 02:31:26;;;;;;;;;2.67;1.00;;;;;;;;5061683;28;28862;-76
2023/12/23 02:33:52;;;;;;;;;0.00;0.00;;;;;;;;5026089;28;29011;-76
2023/12/23 02:36:21;;;;;;;;;0.00;0.00;;;;;;;;5056990;28;28536;-76
2023/12/23 02:38:50;;;;;;;;;0.00;0.00;;;;;;;;5042419;28;28885;-78
2023/12/23 02:41:15;;;;;;;;;0.00;0.00;;;;;;;;5033431;28;28823;-78
2023/12/23 02:43:40;;;;;;;;;2.33;0.33;;;;;;;;5042629;28;28450;-77
2023/12/23 02:46:05;;;;;;;;;0.00;0.00;;;;;;;;5047458;28;29084;-79
2023/12/23 02:48:31;;;;;;;;;0.00;0.00;;;;;;;;5047590;28;28756;-82
2023/12/23 02:50:56;;;;;;;;;0.67;0.67;;;;;;;;5063248;28;28220;-82
2023/12/23 02:53:21;;;;;;;;;0.00;0.00;;;;;;;;5067519;28;28455;-82
2023/12/23 02:55:46;;;;;;;;;1.00;0.00;;;;;;;;5053519;28;28825;-82
2023/12/23 02:58:12;;;;;;;;;0.67;0.67;;;;;;;;5050924;28;28479;-82
2023/12/23 03:00:37;;;;;;;;;0.67;0.00;;;;;;;;5053735;28;28951;-83
2023/12/23 03:03:02;;;;;;;;;1.33;0.00;;;;;;;;5054364;28;28560;-81
2023/12/23 03:05:29;;;;;;;;;0.00;0.00;;;;;;;;5064875;28;28688;-83
2023/12/23 03:07:57;;;;;;;;;0.33;0.33;;;;;;;;5053751;28;28520;-82
2023/12/23 03:10:22;;;;;;;;;0.00;0.00;;;;;;;;5030430;28;28883;-82
2023/12/23 03:12:48;;;;;;;;;0.00;0.00;;;;;;;;5062629;28;28544;-82
2023/12/23 03:15:13;;;;;;;;;1.00;0.00;;;;;;;;5045270;28;30048;-83
2023/12/23 03:17:38;;;;;;;;;0.00;0.00;;;;;;;;5052133;28;29211;-81
2023/12/23 03:20:04;;;;;;;;;0.00;0.00;;;;;;;;5052354;28;28978;-81
2023/12/23 03:22:30;;;;;;;;;3.67;0.00;;;;;;;;5031222;28;28991;-83
2023/12/23 03:24:55;;;;;;;;;0.33;0.00;;;;;;;;5044586;28;29746;-82
2023/12/23 03:27:20;;;;;;;;;0.33;0.00;;;;;;;;5050284;28;28512;-82
2023/12/23 03:29:46;;;;;;;;;2.67;0.67;;;;;;;;5051662;28;28044;-83
2023/12/23 03:32:11;;;;;;;;;0.33;0.33;;;;;;;;5049164;28;28061;-83
2023/12/23 03:34:36;;;;;;;;;0.33;0.00;;;;;;;;5051572;28;28434;-85
2023/12/23 03:37:02;;;;;;;;;0.67;0.67;;;;;;;;5037218;28;29060;-83
2023/12/23 03:39:27;;;;;;;;;1.67;0.00;;;;;;;;5035494;28;28487;-85
2023/12/23 03:41:52;;;;;;;;;4.00;0.00;;;;;;;;5036729;28;28503;-83
2023/12/23 03:44:18;;;;;;;;;1.67;0.33;;;;;;;;5059569;28;29426;-81
2023/12/23 03:46:43;;;;;;;;;0.00;0.00;;;;;;;;5041914;28;28818;-82
2023/12/23 03:49:08;;;;;;;;;1.00;1.00;;;;;;;;5052871;28;28585;-82
2023/12/23 03:51:34;;;;;;;;;1.33;0.00;;;;;;;;5050841;28;28772;-81
2023/12/23 03:53:59;;;;;;;;;0.67;0.67;;;;;;;;5034701;28;29770;-77
2023/12/23 03:56:25;;;;;;;;;0.00;0.00;;;;;;;;5045396;28;28903;-76
2023/12/23 03:58:50;;;;;;;;;1.33;0.67;;;;;;;;5059551;28;28509;-75
2023/12/23 04:01:17;;;;;;;;;0.00;0.00;;;;;;;;5065776;28;28443;-75
2023/12/23 04:03:43;;;;;;;;;0.33;0.00;;;;;;;;5041115;28;30670;-76
2023/12/23 04:06:08;;;;;;;;;0.00;0.00;;;;;;;;5042193;28;28359;-78
2023/12/23 04:08:34;;;;;;;;;0.33;0.33;;;;;;;;5058530;28;28524;-79
2023/12/23 04:10:59;;;;;;;;;0.00;0.00;;;;;;;;5071985;28;28612;-76
2023/12/23 04:13:25;;;;;;;;;0.00;0.00;;;;;;;;5059626;28;28826;-78
2023/12/23 04:15:52;;;;;;;;;1.00;0.00;;;;;;;;5042658;28;28848;-78
2023/12/23 04:18:18;;;;;;;;;0.00;0.00;;;;;;;;5060462;28;28423;-77
2023/12/23 04:20:43;;;;;;;;;2.00;0.00;;;;;;;;5059686;28;28540;-78
2023/12/23 04:23:08;;;;;;;;;0.00;0.00;;;;;;;;5049160;28;30361;-77
2023/12/23 04:25:33;;;;;;;;;0.00;0.00;;;;;;;;5067166;28;28341;-77
2023/12/23 04:27:59;;;;;;;;;0.00;0.00;;;;;;;;5057994;28;27848;-78
2023/12/23 04:30:24;;;;;;;;;0.00;0.00;;;;;;;;5045607;28;30100;-77
2023/12/23 04:32:49;;;;;;;;;0.00;0.00;;;;;;;;5058053;28;28363;-76
2023/12/23 04:35:14;;;;;;;;;1.00;0.00;;;;;;;;5058071;28;28532;-77
2023/12/23 04:37:41;;;;;;;;;0.00;0.00;;;;;;;;5065473;28;28792;-77
2023/12/23 04:40:08;;;;;;;;;1.67;0.00;;;;;;;;5058564;28;28423;-78
2023/12/23 04:42:34;;;;;;;;;0.00;0.00;;;;;;;;5061784;28;28431;-75
2023/12/23 04:44:59;;;;;;;;;0.00;0.00;;;;;;;;5080674;28;28560;-77
2023/12/23 04:47:24;;;;;;;;;0.00;0.00;;;;;;;;5066662;28;28585;-76
2023/12/23 04:49:50;;;;;;;;;1.00;0.00;;;;;;;;5057806;28;29060;-74
2023/12/23 04:52:15;;;;;;;;;0.00;0.00;;;;;;;;5083985;28;28342;-75
2023/12/23 04:54:49;;;;;;;;;0.00;0.00;;;;;;;;5066724;28;28302;-75
2023/12/23 04:57:14;;;;;;;;;0.00;0.00;;;;;;;;5065268;28;28437;-77
2023/12/23 04:59:40;;;;;;;;;0.33;0.00;;;;;;;;5072791;28;28568;-75
2023/12/23 05:02:05;;;;;;;;;1.00;0.00;;;;;;;;5061830;28;28176;-76
2023/12/23 05:04:30;;;;;;;;;0.00;0.00;;;;;;;;5062414;28;28517;-78
2023/12/23 05:06:57;;;;;;;;;0.67;0.00;;;;;;;;5062501;28;28473;-76
2023/12/23 05:09:22;;;;;;;;;0.67;0.00;;;;;;;;5052250;28;27922;-76
2023/12/23 05:11:47;;;;;;;;;0.00;0.00;;;;;;;;5061861;28;28436;-77
2023/12/23 05:14:13;;;;;;;;;0.00;0.00;;;;;;;;5046748;28;28522;-77
2023/12/23 05:16:38;;;;;;;;;0.00;0.00;;;;;;;;5067709;28;28043;-79
2023/12/23 05:19:03;;;;;;;;;0.33;0.00;;;;;;;;5066083;28;28474;-77
2023/12/23 05:21:28;;;;;;;;;0.00;0.00;;;;;;;;5061185;28;28107;-77
2023/12/23 05:23:54;;;;;;;;;0.33;0.00;;;;;;;;5061897;28;27780;-77
2023/12/23 05:26:19;;;;;;;;;2.33;0.00;;;;;;;;5062498;28;27975;-77
2023/12/23 05:28:45;;;;;;;;;0.00;0.00;;;;;;;;5064364;28;28298;-77
2023/12/23 05:31:10;;;;;;;;;1.33;0.00;;;;;;;;5046125;28;30026;-78
2023/12/23 05:33:35;;;;;;;;;3.33;0.00;;;;;;;;5056082;28;28428;-77
2023/12/23 05:36:01;;;;;;;;;0.00;0.00;;;;;;;;5046983;28;28547;-78
2023/12/23 05:38:26;;;;;;;;;0.00;0.00;;;;;;;;5056187;28;28273;-76
2023/12/23 05:40:56;;;;;;;;;1.67;0.00;;;;;;;;5062885;28;28361;-76
2023/12/23 05:43:23;;;;;;;;;0.00;0.00;;;;;;;;5043993;28;28875;-78
2023/12/23 05:45:49;;;;;;;;;1.67;0.67;;;;;;;;5067344;28;29198;-78
2023/12/23 05:48:14;;;;;;;;;0.00;0.00;;;;;;;;5060301;28;29399;-78
2023/12/23 05:50:39;;;;;;;;;0.67;0.00;;;;;;;;5071255;28;28681;-77
2023/12/23 05:53:05;;;;;;;;;0.00;0.00;;;;;;;;5077815;28;28516;-77
2023/12/23 05:55:30;;;;;;;;;3.33;0.33;;;;;;;;5071791;28;28545;-77
2023/12/23 05:57:55;;;;;;;;;0.67;0.67;;;;;;;;5045201;28;29315;-77
2023/12/23 06:00:21;;;;;;;;;1.33;0.00;;;;;;;;5062770;28;28378;-78
2023/12/23 06:02:46;;;;;;;;;0.67;0.67;;;;;;;;5057347;28;28513;-76
2023/12/23 06:05:11;;;;;;;;;0.00;0.00;;;;;;;;5060436;28;28717;-78
2023/12/23 06:07:37;;;;;;;;;1.67;0.00;;;;;;;;5061576;28;28590;-76
2023/12/23 06:10:02;;;;;;;;;0.00;0.00;;;;;;;;5047917;28;30061;-77
2023/12/23 06:12:28;;;;;;;;;0.00;0.00;;;;;;;;5065161;28;28875;-79
2023/12/23 06:14:57;;;;;;;;;2.00;0.00;;;;;;;;5075152;28;28889;-76
2023/12/23 06:17:23;;;;;;;;;0.67;0.00;;;;;;;;5058873;28;28630;-78
2023/12/23 06:19:48;;;;;;;;;2.00;0.33;;;;;;;;5033065;28;29887;-77
2023/12/23 06:22:13;;;;;;;;;0.00;0.00;;;;;;;;5057847;28;28923;-77
2023/12/23 06:24:39;;;;;;;;;0.67;0.00;;;;;;;;5060560;28;28418;-79
2023/12/23 06:27:04;;;;;;;;;2.00;0.00;;;;;;;;5067245;28;29381;-77
2023/12/23 06:29:30;;;;;;;;;2.67;0.00;;;;;;;;5064180;28;28670;-76
2023/12/23 06:31:56;;;;;;;;;1.67;0.33;;;;;;;;5047490;28;28541;-77
2023/12/23 06:34:22;;;;;;;;;0.00;0.00;;;;;;;;5069703;28;27886;-75
2023/12/23 06:36:47;;;;;;;;;2.33;0.67;;;;;;;;5037716;28;29862;-75
2023/12/23 06:39:12;;;;;;;;;0.67;0.00;;;;;;;;5064822;28;28485;-77
2023/12/23 06:41:38;;;;;;;;;0.00;0.00;;;;;;;;5076427;28;28992;-77
2023/12/23 06:44:03;;;;;;;;;0.00;0.00;;;;;;;;5069101;28;28037;-76
2023/12/23 06:46:28;;;;;;;;;2.33;0.00;;;;;;;;5060156;28;28394;-77
2023/12/23 06:48:54;;;;;;;;;0.33;0.33;;;;;;;;5078947;28;28422;-78
2023/12/23 06:51:19;;;;;;;;;0.00;0.00;;;;;;;;5079155;28;28835;-80
2023/12/23 06:53:44;;;;;;;;;0.00;0.00;;;;;;;;5064286;28;28224;-77
2023/12/23 06:56:11;;;;;;;;;0.00;0.00;;;;;;;;5051300;28;28549;-77
2023/12/23 06:58:36;;;;;;;;;0.67;0.67;;;;;;;;5062935;28;29169;-78
2023/12/23 07:01:01;;;;;;;;;0.00;0.00;;;;;;;;5078897;28;28322;-76
2023/12/23 07:03:26;;;;;;;;;0.00;0.00;;;;;;;;5080587;28;28422;-77
2023/12/23 07:05:52;;;;;;;;;0.00;0.00;;;;;;;;5056907;28;28449;-76
2023/12/23 07:08:20;;;;;;;;;0.67;0.67;;;;;;;;5057553;28;28451;-77
2023/12/23 07:10:45;;;;;;;;;0.67;0.00;;;;;;;;5053509;28;28538;-79
2023/12/23 07:13:11;;;;;;;;;1.33;0.00;;;;;;;;5058872;28;27955;-76
2023/12/23 07:15:36;;;;;;;;;1.67;0.00;;;;;;;;5069526;28;28629;-76
2023/12/23 07:18:01;;;;;;;;;0.33;0.00;;;;;;;;5065849;28;28120;-78
2023/12/23 07:20:27;;;;;;;;;2.67;0.00;;;;;;;;5066390;28;27868;-77
2023/12/23 07:22:53;;;;;;;;;0.33;0.33;;;;;;;;5054348;28;28168;-77
2023/12/23 07:25:46;;;;;;;;;0.33;0.33;;;;;;;;5046869;28;29239;-81
2023/12/23 07:28:17;;;;;;;;;1.67;0.00;;;;;;;;5038080;28;28477;-82
2023/12/23 07:30:44;;;;;;;;;0.00;0.00;;;;;;;;5040124;28;28855;-84
2023/12/23 07:36:16;;;;;;;;;0.00;0.00;;;;;;;;5039327;28;27898;-83
2023/12/23 07:41:24;;;;;;;;;0.00;0.00;;;;;;;;5035226;28;28635;-71
2023/12/23 07:43:49;;;;;;;;;0.00;0.00;;;;;;;;5029498;28;28474;-71
2023/12/23 07:46:15;;;;;;;;;0.00;0.00;;;;;;;;5030106;28;29551;-70
2023/12/23 07:48:40;;;;;;;;;0.00;0.00;;;;;;;;5008120;28;29841;-70
2023/12/23 07:51:06;;;;;;;;;1.00;1.00;;;;;;;;5029173;28;28713;-73
2023/12/23 07:53:31;;;;;;;;;1.00;1.00;;;;;;;;5027803;28;28430;-70
2023/12/23 07:55:56;;;;;;;;;0.33;0.33;;;;;;;;5032135;28;28769;-69
2023/12/23 07:58:21;;;;;;;;;1.00;0.00;;;;;;;;5026170;28;29363;-71
2023/12/23 08:00:47;;;;;;;;;1.67;0.67;;;;;;;;5024380;28;28484;-70
2023/12/23 08:03:13;;;;;;;;;0.00;0.00;;;;;;;;5025086;28;28986;-70
2023/12/23 08:05:38;;;;;;;;;0.67;0.00;;;;;;;;5013794;28;30401;-72
2023/12/23 08:08:04;;;;;;;;;1.67;0.00;;;;;;;;5024923;28;28611;-72
2023/12/23 08:10:29;;;;;;;;;1.33;0.00;;;;;;;;5029371;28;28675;-71
2023/12/23 08:12:54;;;;;;;;;0.00;0.00;;;;;;;;5029857;28;28771;-71
2023/12/23 08:15:20;;;;;;;;;0.00;0.00;;;;;;;;5025696;28;28540;-72
2023/12/23 08:17:45;;;;;;;;;0.67;0.67;;;;;;;;5022504;28;29150;-72
2023/12/23 08:20:10;;;;;;;;;1.33;0.33;;;;;;;;5014505;28;28512;-72
2023/12/23 08:22:36;;;;;;;;;1.67;0.00;;;;;;;;5027843;28;28515;-71
2023/12/23 08:25:01;;;;;;;;;0.00;0.00;;;;;;;;5035563;28;28659;-72
2023/12/23 08:27:26;;;;;;;;;0.00;0.00;;;;;;;;5020668;28;30691;-71
2023/12/23 08:29:54;;;;;;;;;0.33;0.00;;;;;;;;5038744;28;28375;-71
2023/12/23 08:32:20;;;;;;;;;0.67;0.00;;;;;;;;5031636;28;28928;-72
2023/12/23 08:34:46;;;;;;;;;0.00;0.00;;;;;;;;5034835;28;30030;-73
2023/12/23 08:37:11;;;;;;;;;0.00;0.00;;;;;;;;5036809;28;30239;-71
2023/12/23 08:39:36;;;;;;;;;0.33;0.33;;;;;;;;5033931;28;28583;-72
2023/12/23 08:42:02;;;;;;;;;0.67;0.67;;;;;;;;5033556;28;28556;-72
2023/12/23 08:44:27;;;;;;;;;0.67;0.67;;;;;;;;5031029;28;28667;-73
2023/12/23 08:46:52;;;;;;;;;0.00;0.00;;;;;;;;5041636;28;28516;-71
2023/12/23 08:49:18;;;;;;;;;0.00;0.00;;;;;;;;5019202;28;28807;-76
2023/12/23 08:51:43;;;;;;;;;0.00;0.00;;;;;;;;5016566;28;28846;-70
2023/12/23 08:54:08;;;;;;;;;0.00;0.00;;;;;;;;5045853;28;28700;-74
2023/12/23 08:56:33;;;;;;;;;1.00;0.67;;;;;;;;5032831;28;28431;-72
2023/12/23 08:58:58;;;;;;;;;0.00;0.00;;;;;;;;5031945;28;28539;-71
2023/12/23 09:01:24;;;;;;;;;0.67;0.67;;;;;;;;5027621;28;28516;-72
2023/12/23 09:03:49;;;;;;;;;2.67;0.00;;;;;;;;5033366;28;28808;-72
2023/12/23 09:06:14;;;;;;;;;0.67;0.67;;;;;;;;5031751;28;29820;-72
2023/12/23 09:08:40;;;;;;;;;0.67;0.67;;;;;;;;5032183;28;28658;-70
2023/12/23 09:11:05;;;;;;;;;0.00;0.00;;;;;;;;5030323;28;28500;-71
2023/12/23 09:13:31;;;;;;;;;2.67;2.00;;;;;;;;4999325;28;28949;-72
2023/12/23 09:15:58;;;;;;;;;1.00;0.00;;;;;;;;5033152;28;28800;-70
2023/12/23 09:18:24;;;;;;;;;1.67;0.67;;;;;;;;5026730;28;29589;-70
2023/12/23 09:20:49;;;;;;;;;2.33;1.67;;;;;;;;5013562;28;28430;-72
2023/12/23 09:23:14;;;;;;;;;2.67;2.00;;;;;;;;5036472;28;28691;-73
2023/12/23 09:25:39;;;;;;;;;2.67;1.67;;;;;;;;5027261;28;28476;-74
2023/12/23 09:28:05;;;;;;;;;0.67;0.67;;;;;;;;5031529;28;28711;-73
2023/12/23 09:30:30;;;;;;;;;2.00;2.00;;;;;;;;5031204;28;29168;-74
2023/12/23 09:32:56;;;;;;;;;1.33;1.00;;;;;;;;5029981;28;28922;-75
2023/12/23 09:35:22;;;;;;;;;1.00;1.00;;;;;;;;5027289;28;29542;-72
2023/12/23 09:37:47;;;;;;;;;0.67;0.67;;;;;;;;5012765;28;28998;-73
2023/12/23 09:40:13;;;;;;;;;2.67;0.00;;;;;;;;5023254;28;28967;-73
2023/12/23 09:42:39;;;;;;;;;0.00;0.00;;;;;;;;5008456;28;29732;-72
2023/12/23 09:45:04;;;;;;;;;1.00;0.00;;;;;;;;5026727;28;28874;-73
2023/12/23 09:47:30;;;;;;;;;1.00;0.33;;;;;;;;5027461;28;29111;-72
2023/12/23 09:49:55;;;;;;;;;0.33;0.33;;;;;;;;5006780;28;28674;-73
2023/12/23 09:52:21;;;;;;;;;0.33;0.33;;;;;;;;5029483;28;29042;-73
2023/12/23 09:54:50;;;;;;;;;1.00;1.00;;;;;;;;5009336;28;30605;-72
2023/12/23 09:57:15;;;;;;;;;2.50;1.50;;;;;;;;5008165;28;29210;-72
2023/12/23 09:59:41;;;;;;;;;0.00;0.00;;;;;;;;5024092;28;29897;-74
2023/12/23 10:02:06;;;;;;;;;0.33;0.00;;;;;;;;5015030;28;28576;-73
2023/12/23 10:04:33;;;;;;;;;1.00;0.00;;;;;;;;5001596;28;30026;-70
2023/12/23 10:06:58;;;;;;;;;1.00;1.00;;;;;;;;5024637;28;28682;-71
2023/12/23 10:09:25;;;;;;;;;2.00;0.00;;;;;;;;5029463;28;28763;-73
2023/12/23 10:11:50;;;;;;;;;0.33;0.33;;;;;;;;5028959;28;28679;-76
2023/12/23 10:14:16;;;;;;;;;0.67;0.67;;;;;;;;5027500;28;28523;-75
2023/12/23 10:16:41;;;;;;;;;2.00;1.00;;;;;;;;5010680;28;28830;-74
2023/12/23 10:19:10;;;;;;;;;1.00;1.00;;;;;;;;5008756;28;29875;-74
2023/12/23 10:21:35;;;;;;;;;1.33;0.00;;;;;;;;5029700;28;28737;-75
2023/12/23 10:24:00;;;;;;;;;4.00;2.00;;;;;;;;5012367;28;29697;-73
2023/12/23 10:26:26;;;;;;;;;1.00;0.00;;;;;;;;5011109;28;28873;-72
2023/12/23 10:28:53;;;;;;;;;1.33;0.00;;;;;;;;5002888;28;28928;-72
2023/12/23 10:31:21;;;;;;;;;0.67;0.67;;;;;;;;5030213;28;28876;-73
2023/12/23 10:33:50;;;;;;;;;2.25;1.25;;;;;;;;5029221;28;28461;-73
2023/12/23 10:36:16;;;;;;;;;2.00;0.00;;;;;;;;5011227;28;28420;-72
2023/12/23 10:38:46;;;;;;;;;1.00;1.00;;;;;;;;5012469;28;28924;-71
2023/12/23 10:41:16;;;;;;;;;1.00;1.00;;;;;;;;5028136;28;28941;-70
2023/12/23 10:43:41;;;;;;;;;3.33;0.00;;;;;;;;5025728;28;28551;-72
2023/12/23 10:46:07;;;;;;;;;3.00;0.67;;;;;;;;5028602;28;28789;-70
2023/12/23 10:48:32;;;;;;;;;1.00;0.00;;;;;;;;5029564;28;28541;-69
2023/12/23 10:50:59;;;;;;;;;0.67;0.67;;;;;;;;5011259;28;29643;-72
2023/12/23 10:53:25;;;;;;;;;0.67;0.67;;;;;;;;5029052;28;29108;-73
2023/12/23 10:55:50;;;;;;;;;1.00;0.00;;;;;;;;5029503;28;28856;-72
2023/12/23 10:58:16;;;;;;;;;5.33;5.00;;;;;;;;5026990;28;28582;-70
2023/12/23 11:00:42;;;;;;;;;1.00;0.00;;;;;;;;5028445;28;28798;-72
2023/12/23 11:03:08;;;;;;;;;1.00;1.00;;;;;;;;5009942;28;29992;-71
2023/12/23 11:05:34;;;;;;;;;1.00;0.00;;;;;;;;5026832;28;29041;-73
2023/12/23 11:08:05;;;;;;;;;3.00;1.00;;;;;;;;5015085;28;28880;-71
2023/12/23 11:10:32;;;;;;;;;2.67;2.00;;;;;;;;5027475;28;28558;-72
2023/12/23 11:12:58;;;;;;;;;1.33;1.00;;;;;;;;5026828;28;28920;-72
2023/12/23 11:15:24;;;;;;;;;5.33;2.33;;;;;;;;5035048;28;28540;-72
2023/12/23 11:17:49;;;;;;;;;2.00;1.00;;;;;;;;4993323;28;28884;-71
2023/12/23 11:20:33;;;;;;;;;2.33;2.33;;;;;;;;5027584;28;28779;-73
2023/12/23 11:23:17;;;;;;;;;5.00;3.00;;;;;;;;5026423;28;29116;-70
2023/12/23 11:25:42;;;;;;;;;1.25;1.25;;;;;;;;5028193;28;28590;-72
2023/12/23 11:28:08;;;;;;;;;4.33;2.33;;;;;;;;5010284;28;28884;-73
2023/12/23 11:30:37;;;;;;;;;1.00;1.00;;;;;;;;5010955;28;30573;-73
2023/12/23 11:33:03;;;;;;;;;1.00;1.00;;;;;;;;5011206;28;28888;-73
2023/12/23 11:35:29;;;;;;;;;4.00;3.00;;;;;;;;5029149;28;28421;-73
2023/12/23 11:38:00;;;;;;;;;2.00;1.67;;;;;;;;5029186;28;28473;-71
2023/12/23 11:40:26;;;;;;;;;1.33;1.33;;;;;;;;5029569;28;28556;-72
2023/12/23 11:42:52;;;;;;;;;0.33;0.33;;;;;;;;5030205;28;28580;-73
2023/12/23 11:45:18;;;;;;;;;2.00;2.00;;;;;;;;5032130;28;28935;-73
2023/12/23 11:47:43;;;;;;;;;1.00;1.00;;;;;;;;5013019;28;28517;-73
2023/12/23 11:50:09;;;;;;;;;6.67;4.00;;;;;;;;5012139;28;28871;-74
2023/12/23 11:52:35;;;;;;;;;0.00;0.00;;;;;;;;5027627;28;28446;-74
2023/12/23 11:55:01;;;;;;;;;1.67;1.67;;;;;;;;5026841;28;28894;-74
2023/12/23 11:57:27;;;;;;;;;2.00;2.00;;;;;;;;5028340;28;28922;-75
2023/12/23 11:59:52;;;;;;;;;1.00;1.00;;;;;;;;5028328;28;29380;-73
2023/12/23 12:02:18;;;;;;;;;2.33;2.33;;;;;;;;5027448;28;29684;-72
2023/12/23 12:04:43;;;;;;;;;1.00;1.00;;;;;;;;5028114;28;28712;-73
2023/12/23 12:07:08;;;;;;;;;1.67;0.33;;;;;;;;5009523;28;28649;-73
2023/12/23 12:09:34;;;;;;;;;2.67;1.33;;;;;;;;5027823;28;28873;-76
2023/12/23 12:11:59;;;;;;;;;0.67;0.00;;;;;;;;5003553;28;29666;-71
2023/12/23 12:14:27;;;;;;;;;0.67;0.67;;;;;;;;5027952;28;28769;-70
2023/12/23 12:16:53;;;;;;;;;0.00;0.00;;;;;;;;5014407;28;28590;-69
2023/12/23 12:19:18;;;;;;;;;1.00;1.00;;;;;;;;5027397;28;28520;-71
2023/12/23 12:21:44;;;;;;;;;1.33;0.00;;;;;;;;5023234;28;29512;-71
2023/12/23 12:24:10;;;;;;;;;1.00;1.00;;;;;;;;5034184;28;28829;-71
2023/12/23 12:26:35;;;;;;;;;0.33;0.33;;;;;;;;5026972;28;28478;-72
2023/12/23 12:29:01;;;;;;;;;2.00;1.00;;;;;;;;5037469;28;28877;-71
2023/12/23 12:31:26;;;;;;;;;1.00;1.00;;;;;;;;5030821;28;28725;-71
2023/12/23 12:33:52;;;;;;;;;0.00;0.00;;;;;;;;5032698;28;28429;-72
2023/12/23 12:36:20;;;;;;;;;0.00;0.00;;;;;;;;5013802;28;29406;-72
2023/12/23 12:38:45;;;;;;;;;0.00;0.00;;;;;;;;5037599;28;28677;-71
2023/12/23 12:41:12;;;;;;;;;0.00;0.00;;;;;;;;5019589;28;30795;-70
2023/12/23 12:43:38;;;;;;;;;0.00;0.00;;;;;;;;5027580;28;28713;-71
2023/12/23 12:46:04;;;;;;;;;0.00;0.00;;;;;;;;5027648;28;29050;-71
2023/12/23 12:48:30;;;;;;;;;0.00;0.00;;;;;;;;5024743;28;29004;-73
2023/12/23 12:50:55;;;;;;;;;0.50;0.00;;;;;;;;5009567;28;29594;-70
2023/12/23 12:53:21;;;;;;;;;2.00;2.00;;;;;;;;5027102;28;28716;-71
2023/12/23 12:55:46;;;;;;;;;0.00;0.00;;;;;;;;5027619;28;28739;-73
2023/12/23 12:58:11;;;;;;;;;0.00;0.00;;;;;;;;5028353;28;29084;-71
2023/12/23 13:00:37;;;;;;;;;0.00;0.00;;;;;;;;5028158;28;28398;-70
2023/12/23 13:03:03;;;;;;;;;2.00;0.33;;;;;;;;5026803;28;28565;-70
2023/12/23 13:05:28;;;;;;;;;0.00;0.00;;;;;;;;5028430;28;28435;-72
2023/12/23 13:07:54;;;;;;;;;0.00;0.00;;;;;;;;5013284;28;29442;-73
2023/12/23 13:10:20;;;;;;;;;0.00;0.00;;;;;;;;5031310;28;28849;-73
2023/12/23 13:12:45;;;;;;;;;0.00;0.00;;;;;;;;5032052;28;28832;-73
2023/12/23 13:15:10;;;;;;;;;1.67;0.00;;;;;;;;5030384;28;28509;-73
2023/12/23 13:17:36;;;;;;;;;1.00;1.00;;;;;;;;5031902;28;28963;-74
2023/12/23 13:20:02;;;;;;;;;0.00;0.00;;;;;;;;5013753;28;29379;-73
2023/12/23 13:22:27;;;;;;;;;0.00;0.00;;;;;;;;5014009;28;28501;-72
2023/12/23 13:24:52;;;;;;;;;0.00;0.00;;;;;;;;5031363;28;28357;-73
2023/12/23 13:27:20;;;;;;;;;0.67;0.67;;;;;;;;5031708;28;28513;-74
2023/12/23 13:29:48;;;;;;;;;0.75;0.75;;;;;;;;5014389;28;30059;-73
2023/12/23 13:32:13;;;;;;;;;2.50;1.00;;;;;;;;5031006;28;28645;-74
2023/12/23 13:34:39;;;;;;;;;0.67;0.67;;;;;;;;5014290;28;28987;-75
2023/12/23 13:37:07;;;;;;;;;0.00;0.00;;;;;;;;5031657;28;28784;-73
2023/12/23 13:39:36;;;;;;;;;5.00;2.00;;;;;;;;5031614;28;28459;-73
2023/12/23 13:42:01;;;;;;;;;2.50;2.00;;;;;;;;5031710;28;28676;-73
2023/12/23 13:44:34;;;;;;;;;1.00;1.00;;;;;;;;5032492;28;28450;-73
2023/12/23 13:47:00;;;;;;;;;0.00;0.00;;;;;;;;5034039;28;28519;-77
2023/12/23 13:49:25;;;;;;;;;0.00;0.00;;;;;;;;5032334;28;28624;-73
2023/12/23 13:51:51;;;;;;;;;0.00;0.00;;;;;;;;5032568;28;28616;-74
2023/12/23 13:56:50;;;;;;;;;2.00;2.00;;;;;;;;5054784;28;28455;-84
2023/12/23 13:59:17;;;;;;;;;0.00;0.00;;;;;;;;5045463;28;28699;-84
2023/12/23 14:01:42;;;;;;;;;0.00;0.00;;;;;;;;5054213;28;28964;-86
2023/12/23 14:04:08;;;;;;;;;1.00;0.00;;;;;;;;5054817;28;28557;-84
2023/12/23 14:06:36;;;;;;;;;1.00;1.00;;;;;;;;5052978;28;29810;-82
2023/12/23 14:09:03;;;;;;;;;0.75;0.00;;;;;;;;5047426;28;29240;-81
2023/12/23 14:11:30;;;;;;;;;0.00;0.00;;;;;;;;5034594;28;28891;-81
2023/12/23 14:13:58;;;;;;;;;0.00;0.00;;;;;;;;5034493;28;28363;-82
2023/12/23 14:16:57;;;;;;;;;0.00;0.00;;;;;;;;5056483;28;28996;-87
2023/12/23 14:19:30;;;;;;;;;0.00;0.00;;;;;;;;5057654;28;28423;-86
2023/12/23 14:21:58;;;;;;;;;0.00;0.00;;;;;;;;5041083;28;28626;-84
2023/12/23 14:27:42;;;;;;;;;0.00;0.00;;;;;;;;5043556;28;27949;-90
2023/12/23 14:30:15;;;;;;;;;0.00;0.00;;;;;;;;5064422;28;28382;-89
2023/12/23 14:32:40;;;;;;;;;1.00;0.00;;;;;;;;5051470;28;28518;-87
2023/12/23 14:35:10;;;;;;;;;2.00;1.00;;;;;;;;5057243;28;28463;-83
2023/12/23 14:37:35;;;;;;;;;3.25;1.00;;;;;;;;5035315;28;29419;-83
2023/12/23 14:40:01;;;;;;;;;0.00;0.00;;;;;;;;5052984;28;28928;-84
2023/12/23 14:42:26;;;;;;;;;0.00;0.00;;;;;;;;5048929;28;28627;-81
2023/12/23 14:44:54;;;;;;;;;0.50;0.50;;;;;;;;5039017;28;28464;-82
2023/12/23 14:47:20;;;;;;;;;1.00;1.00;;;;;;;;5048153;28;29071;-82